createdAt,value
2022-10-17T00:01:06.051Z,0.00
2022-10-17T00:06:05.901Z,0.00
2022-10-17T00:11:05.827Z,0.00
2022-10-17T00:16:05.767Z,0.00
2022-10-17T00:21:05.689Z,0.00
2022-10-17T00:26:05.633Z,0.00
2022-10-17T00:31:05.555Z,0.00
2022-10-17T00:36:05.493Z,0.00
2022-10-17T00:41:05.416Z,0.00
2022-10-17T00:46:05.355Z,0.00
2022-10-17T00:51:05.629Z,0.00
2022-10-17T00:56:05.222Z,0.00
2022-10-17T01:01:05.206Z,0.00
2022-10-17T01:06:05.082Z,0.00
2022-10-17T01:11:05.006Z,0.00
2022-10-17T01:16:04.947Z,0.00
2022-10-17T01:21:04.869Z,0.00
2022-10-17T01:26:04.813Z,0.00
2022-10-17T01:31:04.734Z,0.00
2022-10-17T01:36:05.886Z,0.00
2022-10-17T01:41:04.599Z,0.00
2022-10-17T01:46:04.539Z,0.00
2022-10-17T01:51:04.459Z,0.00
2022-10-17T01:56:04.399Z,0.00
2022-10-17T02:01:04.447Z,0.00
2022-10-17T02:06:04.260Z,0.00
2022-10-17T02:11:04.185Z,0.00
2022-10-17T02:16:04.125Z,0.00
2022-10-17T02:21:04.050Z,0.00
2022-10-17T02:26:03.987Z,0.00
2022-10-17T02:31:03.916Z,0.00
2022-10-17T02:36:03.853Z,0.00
2022-10-17T02:41:03.775Z,0.00
2022-10-17T02:46:03.714Z,0.00
2022-10-17T02:51:03.641Z,0.00
2022-10-17T02:56:03.578Z,0.00
2022-10-17T03:01:03.575Z,0.00
2022-10-17T03:06:03.441Z,0.00
2022-10-17T03:11:03.368Z,0.00
2022-10-17T03:16:03.309Z,0.00
2022-10-17T03:21:03.330Z,0.00
2022-10-17T03:26:03.162Z,0.00
2022-10-17T03:31:03.096Z,0.00
2022-10-17T03:36:03.024Z,0.00
2022-10-17T03:41:02.962Z,0.00
2022-10-17T03:46:02.889Z,0.00
2022-10-17T03:51:02.827Z,0.00
2022-10-17T03:56:02.751Z,0.00
2022-10-17T04:01:02.766Z,0.00
2022-10-17T04:06:02.614Z,0.00
2022-10-17T04:11:02.560Z,0.00
2022-10-17T04:16:02.494Z,0.00
2022-10-17T04:21:02.425Z,0.00
2022-10-17T04:26:02.490Z,0.00
2022-10-17T04:31:02.488Z,0.00
2022-10-17T04:36:02.351Z,0.00
2022-10-17T04:41:02.400Z,0.00
2022-10-17T04:46:02.068Z,0.00
2022-10-17T04:51:02.006Z,0.00
2022-10-17T04:56:01.931Z,0.00
2022-10-17T05:01:01.963Z,0.00
2022-10-17T05:06:01.798Z,0.00
2022-10-17T05:11:01.751Z,0.00
2022-10-17T05:16:01.663Z,0.00
2022-10-17T05:21:01.605Z,0.00
2022-10-17T05:26:01.592Z,5.62
2022-10-17T05:31:01.477Z,11.25
2022-10-17T05:36:01.392Z,16.87
2022-10-17T05:41:01.346Z,33.75
2022-10-17T05:46:01.253Z,50.62
2022-10-17T05:51:01.208Z,78.75
2022-10-17T05:56:01.117Z,106.87
2022-10-17T06:01:01.066Z,140.62
2022-10-17T06:06:01.044Z,168.75
2022-10-17T06:11:01.689Z,225.00
2022-10-17T06:16:00.849Z,596.25
2022-10-17T06:21:00.780Z,1243.12
2022-10-17T06:26:00.714Z,1479.37
2022-10-17T06:31:00.642Z,905.62
2022-10-17T06:36:00.577Z,663.75
2022-10-17T06:41:00.506Z,708.75
2022-10-17T06:46:00.453Z,590.62
2022-10-17T06:51:00.374Z,489.37
2022-10-17T06:56:00.300Z,663.75
2022-10-17T07:01:01.027Z,624.37
2022-10-17T07:06:00.173Z,450.00
2022-10-17T07:11:00.112Z,388.12
2022-10-17T07:16:00.058Z,388.12
2022-10-17T07:20:59.975Z,360.00
2022-10-17T07:25:59.907Z,343.12
2022-10-17T07:30:59.835Z,326.25
2022-10-17T07:35:59.771Z,331.87
2022-10-17T07:40:59.701Z,376.87
2022-10-17T07:45:59.637Z,427.50
2022-10-17T07:50:59.565Z,466.87
2022-10-17T07:55:59.501Z,500.62
2022-10-17T08:00:59.581Z,528.75
2022-10-17T08:05:59.359Z,720.00
2022-10-17T08:10:59.300Z,1299.37
2022-10-17T08:15:59.227Z,2227.50
2022-10-17T08:21:00.230Z,1929.37
2022-10-17T08:25:59.092Z,1485.00
2022-10-17T08:30:59.033Z,2340.00
2022-10-17T08:35:58.959Z,2176.87
2022-10-17T08:40:58.901Z,1608.75
2022-10-17T08:45:58.831Z,1485.00
2022-10-17T08:50:58.770Z,2486.25
2022-10-17T08:55:58.696Z,1265.62
2022-10-17T09:00:58.662Z,916.87
2022-10-17T09:05:58.562Z,1985.62
2022-10-17T09:10:58.505Z,3971.25
2022-10-17T09:15:58.429Z,3903.75
2022-10-17T09:20:58.370Z,2452.50
2022-10-17T09:25:58.312Z,3493.12
2022-10-17T09:30:58.246Z,4010.62
2022-10-17T09:35:58.181Z,3476.25
2022-10-17T09:40:58.171Z,3566.25
2022-10-17T09:45:58.061Z,3532.50
2022-10-17T09:51:14.740Z,3639.37
2022-10-17T09:55:58.957Z,3532.50
2022-10-17T10:00:57.878Z,3667.50
2022-10-17T10:05:57.789Z,2998.12
2022-10-17T10:10:57.732Z,3251.25
2022-10-17T10:15:57.661Z,3420.00
2022-10-17T10:20:57.603Z,1951.87
2022-10-17T10:25:57.539Z,2823.75
2022-10-17T10:30:57.483Z,2863.12
2022-10-17T10:35:57.405Z,2452.50
2022-10-17T10:40:57.349Z,2885.62
2022-10-17T10:45:57.287Z,2745.00
2022-10-17T10:50:57.219Z,2373.75
2022-10-17T10:55:57.159Z,2221.87
2022-10-17T11:00:57.182Z,1935.00
2022-10-17T11:05:57.035Z,2008.12
2022-10-17T11:10:56.959Z,1710.00
2022-10-17T11:15:56.899Z,2908.12
2022-10-17T11:20:56.833Z,3043.12
2022-10-17T11:25:56.762Z,2514.37
2022-10-17T11:30:56.717Z,2446.87
2022-10-17T11:35:58.731Z,1524.37
2022-10-17T11:40:56.582Z,1299.37
2022-10-17T11:45:56.499Z,1147.50
2022-10-17T11:55:57.412Z,855.00
2022-10-17T12:00:56.319Z,843.75
2022-10-17T12:05:56.237Z,691.87
2022-10-17T12:10:56.179Z,736.87
2022-10-17T12:15:56.106Z,810.00
2022-10-17T12:20:56.050Z,691.87
2022-10-17T12:25:58.408Z,590.62
2022-10-17T12:30:55.920Z,534.37
2022-10-17T12:35:55.848Z,489.37
2022-10-17T12:40:55.833Z,472.50
2022-10-17T12:45:55.870Z,489.37
2022-10-17T12:50:58.342Z,461.25
2022-10-17T12:55:56.618Z,421.87
2022-10-17T13:01:19.170Z,405.00
2022-10-17T13:05:56.868Z,376.87
2022-10-17T13:10:55.411Z,343.12
2022-10-17T13:15:55.330Z,331.87
2022-10-17T13:20:55.278Z,315.00
2022-10-17T13:25:55.196Z,309.37
2022-10-17T13:30:57.060Z,298.12
2022-10-17T13:36:00.487Z,286.87
2022-10-17T13:41:01.629Z,281.25
2022-10-17T13:45:55.956Z,281.25
2022-10-17T13:50:56.388Z,281.25
2022-10-17T13:56:09.535Z,270.00
2022-10-17T14:00:55.829Z,264.37
2022-10-17T14:05:54.717Z,258.75
2022-10-17T14:10:54.588Z,247.50
2022-10-17T14:15:54.532Z,236.25
2022-10-17T14:25:55.423Z,219.37
2022-10-17T14:30:57.235Z,208.12
2022-10-17T14:35:54.258Z,202.50
2022-10-17T14:41:01.753Z,185.62
2022-10-17T14:45:55.150Z,174.37
2022-10-17T14:50:54.058Z,163.12
2022-10-17T14:55:53.983Z,157.50
2022-10-17T15:00:53.919Z,157.50
2022-10-17T15:05:53.847Z,151.87
2022-10-17T15:10:53.782Z,140.62
2022-10-17T15:15:53.723Z,129.37
2022-10-17T15:21:04.535Z,123.75
2022-10-17T15:25:54.615Z,112.50
2022-10-17T15:30:53.515Z,106.87
2022-10-17T15:35:53.515Z,95.62
2022-10-17T15:40:53.384Z,84.37
2022-10-17T15:45:53.330Z,73.12
2022-10-17T15:50:53.255Z,61.87
2022-10-17T15:55:53.200Z,50.62
2022-10-17T16:00:53.172Z,39.37
2022-10-17T16:05:53.072Z,28.12
2022-10-17T16:10:53.014Z,16.87
2022-10-17T16:15:52.948Z,11.25
2022-10-17T16:20:52.878Z,5.62
2022-10-17T16:25:52.809Z,0.00
2022-10-17T16:30:52.841Z,0.00
2022-10-17T16:35:52.675Z,0.00
2022-10-17T16:40:52.610Z,0.00
2022-10-17T16:45:52.554Z,0.00
2022-10-17T16:50:52.468Z,0.00
2022-10-17T16:55:52.419Z,0.00
2022-10-17T17:00:52.432Z,0.00
2022-10-17T17:05:52.290Z,0.00
2022-10-17T17:10:52.203Z,0.00
2022-10-17T17:15:52.152Z,0.00
2022-10-17T17:20:52.069Z,0.00
2022-10-17T17:25:52.006Z,0.00
2022-10-17T17:30:51.937Z,0.00
2022-10-17T17:35:51.876Z,0.00
2022-10-17T17:40:51.800Z,0.00
2022-10-17T17:45:51.745Z,0.00
2022-10-17T17:50:51.670Z,0.00
2022-10-17T17:55:51.611Z,0.00
2022-10-17T18:00:51.698Z,0.00
2022-10-17T18:05:51.690Z,0.00
2022-10-17T18:10:51.706Z,0.00
2022-10-17T18:15:51.659Z,0.00
2022-10-17T18:20:51.674Z,0.00
2022-10-17T18:25:51.730Z,0.00
2022-10-17T18:30:51.145Z,0.00
2022-10-17T18:35:51.094Z,0.00
2022-10-17T18:40:51.028Z,0.00
2022-10-17T18:45:50.950Z,0.00
2022-10-17T18:50:50.876Z,0.00
2022-10-17T18:55:50.815Z,0.00
2022-10-17T19:00:50.736Z,0.00
2022-10-17T19:05:50.679Z,0.00
2022-10-17T19:10:50.601Z,0.00
2022-10-17T19:15:50.541Z,0.00
2022-10-17T19:20:50.467Z,0.00
2022-10-17T19:25:50.411Z,0.00
2022-10-17T19:30:50.335Z,0.00
2022-10-17T19:35:50.279Z,0.00
2022-10-17T19:40:50.240Z,0.00
2022-10-17T19:45:50.151Z,0.00
2022-10-17T19:50:50.079Z,0.00
2022-10-17T19:55:50.023Z,0.00
2022-10-17T20:00:49.950Z,0.00
2022-10-17T20:05:49.901Z,0.00
2022-10-17T20:10:49.822Z,0.00
2022-10-17T20:15:49.768Z,0.00
2022-10-17T20:20:49.684Z,0.00
2022-10-17T20:26:01.038Z,0.00
2022-10-17T20:30:50.579Z,0.00
2022-10-17T20:35:49.502Z,0.00
2022-10-17T20:40:49.416Z,0.00
2022-10-17T20:45:51.504Z,0.00
2022-10-17T20:50:49.288Z,0.00
2022-10-17T20:55:49.223Z,0.00
2022-10-17T21:00:49.148Z,0.00
2022-10-17T21:05:49.088Z,0.00
2022-10-17T21:10:49.013Z,0.00
2022-10-17T21:15:48.954Z,0.00
2022-10-17T21:20:48.878Z,0.00
2022-10-17T21:25:48.829Z,0.00
2022-10-17T21:30:48.749Z,0.00
2022-10-17T21:35:48.694Z,0.00
2022-10-17T21:40:50.386Z,0.00
2022-10-17T21:45:48.560Z,0.00
2022-10-17T21:50:48.474Z,0.00
2022-10-17T21:55:48.428Z,0.00
2022-10-17T22:00:48.340Z,0.00
2022-10-17T22:05:48.279Z,0.00
2022-10-17T22:10:48.215Z,0.00
2022-10-17T22:15:48.146Z,0.00
2022-10-17T22:20:48.082Z,0.00
2022-10-17T22:25:48.010Z,0.00
2022-10-17T22:30:47.946Z,0.00
2022-10-17T22:35:47.875Z,0.00
2022-10-17T22:40:47.810Z,0.00
2022-10-17T22:45:47.741Z,0.00
2022-10-17T22:50:47.669Z,0.00
2022-10-17T22:55:47.608Z,0.00
2022-10-17T23:00:47.533Z,0.00
2022-10-17T23:05:47.474Z,0.00
2022-10-17T23:10:47.399Z,0.00
2022-10-17T23:15:47.340Z,0.00
2022-10-17T23:20:47.264Z,0.00
2022-10-17T23:25:47.208Z,0.00
2022-10-17T23:30:47.142Z,0.00
2022-10-17T23:35:47.074Z,0.00
2022-10-17T23:40:47.008Z,0.00
2022-10-17T23:45:46.939Z,0.00
2022-10-17T23:50:46.874Z,0.00
2022-10-17T23:55:46.806Z,0.00
